createdAt,value
2023-04-05T00:00:02.108Z,100388.56
2023-04-05T00:02:30.739Z,100385.94
2023-04-05T00:04:58.669Z,100385.03
2023-04-05T00:07:26.728Z,100382.75
2023-04-05T00:09:54.037Z,100381.41
2023-04-05T00:12:21.395Z,100382.69
2023-04-05T00:17:15.818Z,100370.59
2023-04-05T00:19:43.428Z,100368.38
2023-04-05T00:22:11.102Z,100370.72
2023-04-05T00:24:42.197Z,100364.75
2023-04-05T00:27:09.284Z,100365.44
2023-04-05T00:29:38.401Z,100361.13
2023-04-05T00:32:06.166Z,100353.91
2023-04-05T00:34:33.976Z,100359.66
2023-04-05T00:37:00.860Z,100357.47
2023-04-05T00:39:27.911Z,100346.69
2023-04-05T00:41:54.828Z,100348.22
2023-04-05T00:44:21.703Z,100343.31
2023-04-05T00:49:15.653Z,100340.28
2023-04-05T00:51:42.887Z,100339.16
2023-04-05T00:54:09.772Z,100334.09
2023-04-05T00:56:41.386Z,100328.09
2023-04-05T00:59:08.201Z,100325.63
2023-04-05T01:01:38.400Z,100323.66
2023-04-05T01:04:11.766Z,100327.38
2023-04-05T01:06:41.376Z,100322.81
2023-04-05T01:09:39.105Z,100325.03
2023-04-05T01:12:09.564Z,100320.47
2023-04-05T01:14:47.927Z,100319.19
2023-04-05T01:17:16.656Z,100322.63
2023-04-05T01:19:48.391Z,100322.44
2023-04-05T01:22:38.543Z,100326.50
2023-04-05T01:25:21.860Z,100321.47
2023-04-05T01:27:49.923Z,100318.31
2023-04-05T01:30:26.805Z,100313.78
2023-04-05T01:33:08.306Z,100317.84
2023-04-05T01:35:42.706Z,100314.38
2023-04-05T01:38:15.151Z,100313.03
2023-04-05T01:43:21.951Z,100305.31
2023-04-05T01:48:16.494Z,100309.81
2023-04-05T01:50:43.757Z,100302.72
2023-04-05T01:53:11.149Z,100305.25
2023-04-05T01:55:38.205Z,100302.97
2023-04-05T01:58:05.245Z,100303.72
2023-04-05T02:00:32.056Z,100297.47
2023-04-05T02:02:59.397Z,100293.13
2023-04-05T02:05:26.312Z,100292.06
2023-04-05T02:07:53.131Z,100295.53
2023-04-05T02:10:20.863Z,100296.25
2023-04-05T02:12:47.655Z,100299.38
2023-04-05T02:15:14.756Z,100302.16
2023-04-05T02:17:46.339Z,100297.94
2023-04-05T02:20:14.957Z,100299.25
2023-04-05T02:22:45.934Z,100293.59
2023-04-05T02:25:13.724Z,100297.94
2023-04-05T02:27:41.465Z,100293.84
2023-04-05T02:30:09.655Z,100291.19
2023-04-05T02:32:36.936Z,100291.47
2023-04-05T02:35:04.312Z,100291.94
2023-04-05T02:37:31.485Z,100285.81
2023-04-05T02:40:01.436Z,100291.47
2023-04-05T02:42:28.597Z,100289.53
2023-04-05T02:44:58.435Z,100296.59
2023-04-05T02:47:25.246Z,100286.50
2023-04-05T02:49:52.056Z,100284.25
2023-04-05T02:52:19.013Z,100288.66
2023-04-05T02:54:47.371Z,100286.28
2023-04-05T02:57:15.777Z,100283.97
2023-04-05T02:59:43.114Z,100282.78
2023-04-05T03:02:11.196Z,100281.06
2023-04-05T03:04:39.114Z,100277.00
2023-04-05T03:07:05.855Z,100283.03
2023-04-05T03:09:33.835Z,100285.44
2023-04-05T03:12:02.696Z,100284.34
2023-04-05T03:14:33.652Z,100283.97
2023-04-05T03:17:04.570Z,100282.28
2023-04-05T03:19:32.496Z,100279.91
2023-04-05T03:21:59.672Z,100289.75
2023-04-05T03:24:26.850Z,100287.00
2023-04-05T03:26:53.671Z,100286.66
2023-04-05T03:29:20.680Z,100275.91
2023-04-05T03:31:47.630Z,100286.16
2023-04-05T03:34:14.866Z,100288.25
2023-04-05T03:36:44.971Z,100281.53
2023-04-05T03:39:13.706Z,100285.41
2023-04-05T03:41:43.864Z,100280.69
2023-04-05T03:44:11.266Z,100290.78
2023-04-05T03:46:38.354Z,100290.91
2023-04-05T03:49:06.470Z,100288.03
2023-04-05T03:51:36.578Z,100287.53
2023-04-05T03:54:03.516Z,100293.19
2023-04-05T03:56:30.478Z,100285.34
2023-04-05T03:58:57.670Z,100287.66
2023-04-05T04:01:24.942Z,100281.97
2023-04-05T04:03:51.662Z,100284.47
2023-04-05T04:06:19.535Z,100283.75
2023-04-05T04:08:46.757Z,100279.50
2023-04-05T04:11:14.513Z,100277.88
2023-04-05T04:13:41.400Z,100281.72
2023-04-05T04:16:08.268Z,100273.09
2023-04-05T04:18:35.180Z,100272.38
2023-04-05T04:21:08.443Z,100274.75
2023-04-05T04:23:38.849Z,100276.69
2023-04-05T04:26:07.728Z,100281.25
2023-04-05T04:28:35.078Z,100278.13
2023-04-05T04:31:05.452Z,100288.19
2023-04-05T04:33:32.282Z,100280.75
2023-04-05T04:36:03.382Z,100282.66
2023-04-05T04:38:30.358Z,100280.50
2023-04-05T04:40:58.472Z,100278.50
2023-04-05T04:43:27.825Z,100281.38
2023-04-05T04:45:57.288Z,100275.47
2023-04-05T04:48:24.070Z,100272.53
2023-04-05T04:50:55.050Z,100273.38
2023-04-05T04:53:24.311Z,100278.03
2023-04-05T04:55:51.227Z,100279.28
2023-04-05T04:58:18.319Z,100282.25
2023-04-05T05:00:45.815Z,100280.34
2023-04-05T05:03:13.172Z,100291.28
2023-04-05T05:08:15.365Z,100292.19
2023-04-05T05:10:43.383Z,100284.78
2023-04-05T05:13:13.514Z,100286.47
2023-04-05T05:15:43.845Z,100295.34
2023-04-05T05:18:10.741Z,100302.28
2023-04-05T05:20:38.190Z,100297.81
2023-04-05T05:23:05.837Z,100293.28
2023-04-05T05:25:36.162Z,100300.47
2023-04-05T05:28:03.747Z,100295.41
2023-04-05T05:30:31.433Z,100293.28
2023-04-05T05:32:58.851Z,100290.13
2023-04-05T05:35:25.896Z,100296.38
2023-04-05T05:37:53.389Z,100298.16
2023-04-05T05:40:20.266Z,100299.44
2023-04-05T05:42:47.345Z,100298.78
2023-04-05T05:45:16.098Z,100301.53
2023-04-05T05:47:46.131Z,100288.25
2023-04-05T05:50:13.500Z,100290.97
2023-04-05T05:52:40.758Z,100288.00
2023-04-05T05:55:08.590Z,100289.69
2023-04-05T05:57:35.374Z,100288.03
2023-04-05T06:00:02.186Z,100293.53
2023-04-05T06:02:28.970Z,100288.53
2023-04-05T06:04:55.836Z,100284.47
2023-04-05T06:07:22.952Z,100274.41
2023-04-05T06:12:16.116Z,100287.25
2023-04-05T06:14:42.911Z,100290.03
2023-04-05T06:17:09.665Z,100289.28
2023-04-05T06:19:36.508Z,100285.44
2023-04-05T06:22:03.285Z,100285.41
2023-04-05T06:24:32.312Z,100294.03
2023-04-05T06:26:59.561Z,100290.81
2023-04-05T06:29:26.831Z,100288.47
2023-04-05T06:31:54.513Z,100292.56
2023-04-05T06:34:21.567Z,100289.56
2023-04-05T06:39:15.313Z,100289.13
2023-04-05T06:41:45.069Z,100284.53
2023-04-05T06:44:11.890Z,100289.03
2023-04-05T06:46:38.923Z,100291.19
2023-04-05T06:49:06.684Z,100294.63
2023-04-05T06:51:34.110Z,100294.72
2023-04-05T06:54:01.127Z,100294.72
2023-04-05T06:56:29.445Z,100302.69
2023-04-05T06:58:56.357Z,100295.63
2023-04-05T07:01:25.213Z,100293.72
2023-04-05T07:03:52.215Z,100292.94
2023-04-05T07:06:18.935Z,100294.22
2023-04-05T07:08:45.936Z,100298.28
2023-04-05T07:11:13.857Z,100288.59
2023-04-05T07:16:08.187Z,100286.06
2023-04-05T07:18:38.011Z,100285.00
2023-04-05T07:21:04.963Z,100279.44
2023-04-05T07:23:31.930Z,100278.59
2023-04-05T07:26:06.231Z,100280.91
2023-04-05T07:28:35.869Z,100281.72
2023-04-05T07:31:04.479Z,100273.88
2023-04-05T07:33:31.504Z,100272.06
2023-04-05T07:35:59.171Z,100280.47
2023-04-05T07:38:31.641Z,100280.31
2023-04-05T07:40:59.163Z,100271.56
2023-04-05T07:43:29.865Z,100283.59
2023-04-05T07:46:04.377Z,100277.09
2023-04-05T07:48:31.704Z,100281.56
2023-04-05T07:51:10.454Z,100276.88
2023-04-05T07:53:38.046Z,100276.38
2023-04-05T07:56:12.897Z,100280.06
2023-04-05T07:58:41.545Z,100274.16
2023-04-05T08:01:10.593Z,100285.69
2023-04-05T08:03:40.320Z,100284.06
2023-04-05T08:06:15.082Z,100281.03
2023-04-05T08:08:45.474Z,100280.38
2023-04-05T08:11:13.075Z,100286.00
2023-04-05T08:13:41.981Z,100275.34
2023-04-05T08:16:09.803Z,100275.50
2023-04-05T08:18:36.857Z,100273.84
2023-04-05T08:21:04.070Z,100270.63
2023-04-05T08:23:31.631Z,100264.63
2023-04-05T08:25:58.509Z,100268.63
2023-04-05T08:28:25.266Z,100263.06
2023-04-05T08:30:58.168Z,100259.97
2023-04-05T08:33:26.574Z,100262.38
2023-04-05T08:35:53.554Z,100256.69
2023-04-05T08:38:20.654Z,100258.72
2023-04-05T08:40:48.042Z,100255.44
2023-04-05T08:43:44.298Z,100250.25
2023-04-05T08:46:17.290Z,100255.09
2023-04-05T08:48:44.282Z,100251.84
2023-04-05T08:51:11.377Z,100248.22
2023-04-05T08:53:41.821Z,100259.75
2023-04-05T08:56:11.576Z,100253.16
2023-04-05T08:58:39.623Z,100256.75
2023-04-05T09:01:08.070Z,100257.16
2023-04-05T09:03:41.017Z,100251.25
2023-04-05T09:06:12.697Z,100258.53
2023-04-05T09:08:41.665Z,100240.75
2023-04-05T09:11:09.318Z,100244.34
2023-04-05T09:13:36.146Z,100244.38
2023-04-05T09:16:03.233Z,100242.66
2023-04-05T09:18:30.303Z,100235.53
2023-04-05T09:21:07.133Z,100229.47
2023-04-05T09:23:37.497Z,100235.44
2023-04-05T09:26:22.344Z,100228.31
2023-04-05T09:31:33.237Z,100228.50
2023-04-05T09:34:02.773Z,100227.75
2023-04-05T09:36:29.786Z,100225.22
2023-04-05T09:39:13.089Z,100224.88
2023-04-05T09:41:40.064Z,100227.13
2023-04-05T09:44:06.957Z,100226.06
2023-04-05T09:46:38.419Z,100223.09
2023-04-05T09:49:10.456Z,100220.59
2023-04-05T09:51:41.554Z,100220.09
2023-04-05T09:54:11.087Z,100217.91
2023-04-05T09:56:40.186Z,100215.22
2023-04-05T09:59:11.645Z,100218.47
2023-04-05T10:01:41.332Z,100209.00
2023-04-05T10:04:09.789Z,100212.59
2023-04-05T10:06:41.498Z,100218.19
2023-04-05T10:09:11.645Z,100219.00
2023-04-05T10:11:39.633Z,100210.59
2023-04-05T10:14:08.942Z,100209.94
2023-04-05T10:19:39.620Z,100204.47
2023-04-05T10:22:15.373Z,100206.97
2023-04-05T10:24:51.501Z,100197.16
2023-04-05T10:27:23.814Z,100199.72
2023-04-05T10:30:10.666Z,100201.38
2023-04-05T10:32:51.252Z,100194.94
2023-04-05T10:35:29.118Z,100198.78
2023-04-05T10:38:22.279Z,100192.78
2023-04-05T10:40:51.688Z,100182.25
2023-04-05T10:43:23.550Z,100188.38
2023-04-05T10:45:51.888Z,100182.50
2023-04-05T10:48:44.690Z,100185.88
2023-04-05T10:51:13.652Z,100175.13
2023-04-05T10:53:41.771Z,100181.72
2023-04-05T10:56:08.834Z,100186.81
2023-04-05T10:58:37.780Z,100189.34
2023-04-05T11:01:05.419Z,100180.50
2023-04-05T11:03:51.800Z,100175.53
2023-04-05T11:06:32.465Z,100177.44
2023-04-05T11:09:15.634Z,100173.00
2023-04-05T11:11:51.078Z,100178.06
2023-04-05T11:14:36.556Z,100164.16
2023-04-05T11:17:04.221Z,100172.53
2023-04-05T11:19:43.239Z,100160.78
2023-04-05T11:22:11.629Z,100163.44
2023-04-05T11:25:02.457Z,100161.94
2023-04-05T11:27:34.410Z,100154.94
2023-04-05T11:30:02.965Z,100154.75
2023-04-05T11:32:46.552Z,100166.56
2023-04-05T11:35:16.213Z,100158.66
2023-04-05T11:37:50.169Z,100156.00
2023-04-05T11:40:33.193Z,100148.53
2023-04-05T11:43:11.750Z,100145.22
2023-04-05T11:45:41.056Z,100141.03
2023-04-05T11:48:18.078Z,100138.94
2023-04-05T11:50:48.125Z,100136.50
2023-04-05T11:53:16.486Z,100134.00
2023-04-05T11:58:17.268Z,100136.88
2023-04-05T12:00:46.163Z,100131.91
2023-04-05T12:03:18.013Z,100130.47
2023-04-05T12:05:51.351Z,100122.69
2023-04-05T12:08:22.199Z,100128.94
2023-04-05T12:10:51.201Z,100122.22
2023-04-05T12:13:26.312Z,100126.16
2023-04-05T12:15:55.411Z,100120.63
2023-04-05T12:18:22.325Z,100111.06
2023-04-05T12:23:17.754Z,100106.34
2023-04-05T12:28:16.106Z,100099.91
2023-04-05T12:30:51.591Z,100099.25
2023-04-05T12:33:33.228Z,100094.56
2023-04-05T12:36:05.463Z,100109.19
2023-04-05T12:38:32.475Z,100094.94
2023-04-05T12:41:03.620Z,100086.84
2023-04-05T12:43:43.760Z,100089.34
2023-04-05T12:46:17.694Z,100092.78
2023-04-05T12:51:17.178Z,100084.72
2023-04-05T12:53:48.354Z,100079.78
2023-04-05T12:56:17.044Z,100073.84
2023-04-05T12:58:44.065Z,100084.59
2023-04-05T13:01:11.741Z,100062.69
2023-04-05T13:03:38.601Z,100069.84
2023-04-05T13:06:06.405Z,100060.13
2023-04-05T13:08:33.522Z,100064.47
2023-04-05T13:11:01.377Z,100053.09
2023-04-05T13:13:28.206Z,100055.28
2023-04-05T13:15:55.052Z,100048.59
2023-04-05T13:18:21.893Z,100050.03
2023-04-05T13:23:15.796Z,100036.19
2023-04-05T13:25:45.666Z,100045.25
2023-04-05T13:28:13.024Z,100046.59
2023-04-05T13:30:40.523Z,100038.72
2023-04-05T13:33:07.421Z,100033.06
2023-04-05T13:35:35.222Z,100036.16
2023-04-05T13:38:04.624Z,100022.00
2023-04-05T13:40:32.211Z,100024.69
2023-04-05T13:42:59.786Z,100031.47
2023-04-05T13:45:26.957Z,100018.50
2023-04-05T13:47:54.339Z,100025.78
2023-04-05T13:50:24.892Z,100015.03
2023-04-05T13:52:52.307Z,100010.59
2023-04-05T13:55:19.154Z,100014.63
2023-04-05T13:57:46.015Z,100005.28
2023-04-05T14:00:13.543Z,100011.41
2023-04-05T14:02:41.782Z,100014.91
2023-04-05T14:05:09.287Z,100015.06
2023-04-05T14:07:37.275Z,100004.31
2023-04-05T14:10:06.415Z,100005.34
2023-04-05T14:12:34.823Z,100007.97
2023-04-05T14:15:01.729Z,100004.88
2023-04-05T14:17:28.631Z,100008.69
2023-04-05T14:19:55.650Z,100006.94
2023-04-05T14:22:22.526Z,99996.97
2023-04-05T14:27:16.110Z,100001.94
2023-04-05T14:29:44.420Z,99992.13
2023-04-05T14:32:11.845Z,99996.34
2023-04-05T14:34:38.845Z,99987.69
2023-04-05T14:37:07.166Z,99977.78
2023-04-05T14:39:34.141Z,99989.19
2023-04-05T14:42:01.183Z,99984.56
2023-04-05T14:44:28.245Z,99984.78
2023-04-05T14:46:55.032Z,99976.63
2023-04-05T14:49:22.017Z,99981.34
2023-04-05T14:51:48.858Z,99976.84
2023-04-05T14:54:15.718Z,99978.94
2023-04-05T14:56:42.799Z,99982.84
2023-04-05T14:59:09.760Z,99977.66
2023-04-05T15:01:38.117Z,99971.44
2023-04-05T15:04:05.534Z,99980.56
2023-04-05T15:06:33.336Z,99972.66
2023-04-05T15:09:00.198Z,99968.41
2023-04-05T15:11:28.035Z,99974.34
2023-04-05T15:13:54.819Z,99969.19
2023-04-05T15:16:21.849Z,99970.72
2023-04-05T15:18:48.762Z,99964.22
2023-04-05T15:21:15.838Z,99973.22
2023-04-05T15:23:42.824Z,99967.66
2023-04-05T15:26:09.631Z,99957.13
2023-04-05T15:28:36.490Z,99959.44
2023-04-05T15:31:03.499Z,99949.41
2023-04-05T15:33:32.457Z,99944.16
2023-04-05T15:35:59.338Z,99949.56
2023-04-05T15:38:26.166Z,99955.81
2023-04-05T15:40:53.193Z,99949.50
2023-04-05T15:43:24.715Z,99938.66
2023-04-05T15:45:51.738Z,99937.72
2023-04-05T15:48:18.588Z,99940.63
2023-04-05T15:50:45.597Z,99942.78
2023-04-05T15:53:15.880Z,99945.16
2023-04-05T15:55:42.748Z,99942.25
2023-04-05T15:58:09.477Z,99939.94
2023-04-05T16:00:36.344Z,99940.28
2023-04-05T16:03:03.182Z,99940.47
2023-04-05T16:05:30.010Z,99947.66
2023-04-05T16:07:58.676Z,99943.06
2023-04-05T16:10:25.914Z,99943.69
2023-04-05T16:12:54.785Z,99945.75
2023-04-05T16:15:22.357Z,99944.84
2023-04-05T16:20:23.997Z,99944.25
2023-04-05T16:22:51.879Z,99936.50
2023-04-05T16:25:18.975Z,99933.94
2023-04-05T16:27:45.725Z,99944.34
2023-04-05T16:30:13.344Z,99938.28
2023-04-05T16:32:40.172Z,99935.59
2023-04-05T16:35:07.498Z,99937.16
2023-04-05T16:37:40.394Z,99932.72
2023-04-05T16:40:08.441Z,99934.50
2023-04-05T16:42:35.256Z,99938.25
2023-04-05T16:45:02.335Z,99931.34
2023-04-05T16:47:29.211Z,99931.44
2023-04-05T16:49:56.351Z,99929.84
2023-04-05T16:52:23.440Z,99933.72
2023-04-05T16:54:51.329Z,99938.91
2023-04-05T16:57:18.086Z,99940.81
2023-04-05T16:59:47.617Z,99941.13
2023-04-05T17:02:18.488Z,99929.56
2023-04-05T17:04:46.561Z,99931.03
2023-04-05T17:07:13.381Z,99929.19
2023-04-05T17:09:40.136Z,99927.69
2023-04-05T17:12:09.199Z,99933.81
2023-04-05T17:14:37.650Z,99935.91
2023-04-05T17:17:04.578Z,99934.63
2023-04-05T17:19:32.314Z,99930.59
2023-04-05T17:22:00.264Z,99928.13
2023-04-05T17:24:27.967Z,99943.38
2023-04-05T17:26:56.820Z,99937.38
2023-04-05T17:29:23.773Z,99936.94
2023-04-05T17:31:51.361Z,99936.84
2023-04-05T17:34:18.195Z,99933.03
2023-04-05T17:36:46.928Z,99940.44
2023-04-05T17:39:15.427Z,99941.41
2023-04-05T17:41:43.136Z,99935.66
2023-04-05T17:44:10.213Z,99944.44
2023-04-05T17:46:41.616Z,99936.03
2023-04-05T17:49:11.632Z,99944.84
2023-04-05T17:51:40.457Z,99947.88
2023-04-05T17:54:07.211Z,99954.06
2023-04-05T17:56:34.149Z,99950.09
2023-04-05T17:59:01.062Z,99952.28
2023-04-05T18:01:28.087Z,99950.97
2023-04-05T18:03:54.938Z,99950.38
2023-04-05T18:06:23.010Z,99950.38
2023-04-05T18:11:17.246Z,99952.78
2023-04-05T18:13:44.045Z,99956.72
2023-04-05T18:16:11.772Z,99953.63
2023-04-05T18:18:38.586Z,99959.38
2023-04-05T18:21:06.115Z,99958.03
2023-04-05T18:23:32.984Z,99958.16
2023-04-05T18:26:06.590Z,99961.13
2023-04-05T18:28:33.427Z,99954.94
2023-04-05T18:31:00.276Z,99963.63
2023-04-05T18:33:27.400Z,99966.28
2023-04-05T18:35:54.274Z,99968.88
2023-04-05T18:38:22.082Z,99975.44
2023-04-05T18:43:15.774Z,99976.75
2023-04-05T18:45:42.774Z,99980.19
2023-04-05T18:48:09.794Z,99981.59
2023-04-05T18:50:36.889Z,99979.59
2023-04-05T18:53:04.461Z,99981.50
2023-04-05T18:55:31.767Z,99980.59
2023-04-05T18:57:59.780Z,99981.59
2023-04-05T19:00:27.010Z,99986.84
2023-04-05T19:02:53.847Z,99986.31
2023-04-05T19:05:20.838Z,99989.66
2023-04-05T19:07:47.701Z,99988.84
2023-04-05T19:10:14.678Z,99991.00
2023-04-05T19:12:44.193Z,99992.34
2023-04-05T19:15:11.516Z,99987.03
2023-04-05T19:17:39.222Z,99994.69
2023-04-05T19:20:06.567Z,99994.41
2023-04-05T19:22:33.716Z,99997.72
2023-04-05T19:25:01.483Z,100001.69
2023-04-05T19:27:31.266Z,99999.88
2023-04-05T19:29:58.183Z,99994.69
2023-04-05T19:32:25.048Z,99997.72
2023-04-05T19:34:52.981Z,99996.19
2023-04-05T19:37:19.797Z,99995.03
2023-04-05T19:39:48.450Z,99999.03
2023-04-05T19:42:15.264Z,99996.38
2023-04-05T19:44:51.580Z,99999.69
2023-04-05T19:47:25.738Z,100004.31
2023-04-05T19:49:58.465Z,100007.97
2023-04-05T19:52:47.519Z,100002.63
2023-04-05T19:55:35.642Z,99998.19
2023-04-05T19:58:08.783Z,100004.31
2023-04-05T20:00:35.703Z,99994.13
2023-04-05T20:03:02.996Z,100009.28
2023-04-05T20:05:47.965Z,100001.59
2023-04-05T20:08:18.975Z,100001.38
2023-04-05T20:13:16.503Z,100003.81
2023-04-05T20:18:25.313Z,100013.09
2023-04-05T20:20:54.169Z,100014.88
2023-04-05T20:23:22.762Z,100009.97
2023-04-05T20:25:51.863Z,100004.66
2023-04-05T20:28:42.406Z,100007.31
2023-04-05T20:31:19.299Z,100008.72
2023-04-05T20:33:50.796Z,100008.78
2023-04-05T20:36:19.968Z,100005.25
2023-04-05T20:38:48.757Z,100009.97
2023-04-05T20:41:17.716Z,100009.59
2023-04-05T20:43:44.835Z,100010.31
2023-04-05T20:46:13.020Z,100003.47
2023-04-05T20:48:40.097Z,100005.84
2023-04-05T20:51:09.056Z,99997.94
2023-04-05T20:53:36.810Z,100001.69
2023-04-05T20:56:09.919Z,99998.88
2023-04-05T20:58:38.539Z,99996.84
2023-04-05T21:01:06.395Z,100004.88
2023-04-05T21:03:35.995Z,100004.53
2023-04-05T21:06:03.815Z,99996.66
2023-04-05T21:08:31.694Z,100002.72
2023-04-05T21:11:05.258Z,100003.09
2023-04-05T21:13:32.776Z,100010.06
2023-04-05T21:15:59.988Z,100003.19
2023-04-05T21:18:27.350Z,100011.50
2023-04-05T21:20:54.862Z,100006.34
2023-04-05T21:23:24.217Z,100005.34
2023-04-05T21:25:51.181Z,100008.19
2023-04-05T21:28:18.319Z,100007.06
2023-04-05T21:30:46.106Z,100009.84
2023-04-05T21:33:16.753Z,100003.56
2023-04-05T21:35:43.804Z,100009.84
2023-04-05T21:38:13.543Z,100008.88
2023-04-05T21:40:41.880Z,100011.59
2023-04-05T21:43:08.791Z,100008.09
2023-04-05T21:45:35.714Z,100010.16
2023-04-05T21:48:02.615Z,100001.88
2023-04-05T21:50:30.035Z,100005.28
2023-04-05T21:52:56.954Z,100013.69
2023-04-05T21:55:23.714Z,100008.94
2023-04-05T21:57:51.500Z,100012.84
2023-04-05T22:00:18.987Z,100010.91
2023-04-05T22:02:47.100Z,100015.09
2023-04-05T22:05:25.701Z,100009.97
2023-04-05T22:08:01.668Z,100014.75
2023-04-05T22:10:29.148Z,100014.59
2023-04-05T22:12:56.369Z,100010.00
2023-04-05T22:15:23.209Z,100007.94
2023-04-05T22:20:16.161Z,100018.13
2023-04-05T22:22:43.015Z,100015.47
2023-04-05T22:25:10.388Z,100019.66
2023-04-05T22:27:37.298Z,100018.56
2023-04-05T22:30:05.487Z,100011.03
2023-04-05T22:32:32.280Z,100009.34
2023-04-05T22:35:00.403Z,100015.50
2023-04-05T22:37:27.384Z,100004.91
2023-04-05T22:39:54.331Z,100016.22
2023-04-05T22:42:21.092Z,100008.78
2023-04-05T22:44:48.039Z,100010.19
2023-04-05T22:47:14.802Z,100017.75
2023-04-05T22:49:42.156Z,100016.47
2023-04-05T22:52:09.011Z,100010.78
2023-04-05T22:54:35.794Z,100015.34
2023-04-05T22:57:02.575Z,100012.13
2023-04-05T22:59:29.465Z,100010.19
2023-04-05T23:01:57.211Z,100008.81
2023-04-05T23:04:24.060Z,100015.22
2023-04-05T23:06:51.552Z,100015.50
2023-04-05T23:09:18.377Z,100010.19
2023-04-05T23:11:45.153Z,100004.88
2023-04-05T23:14:12.387Z,100007.97
2023-04-05T23:16:42.811Z,100015.03
2023-04-05T23:19:09.787Z,100008.16
2023-04-05T23:21:36.676Z,99999.88
2023-04-05T23:24:03.777Z,100011.78
2023-04-05T23:26:30.665Z,100013.19
2023-04-05T23:28:57.522Z,100010.13
2023-04-05T23:31:24.595Z,100012.34
2023-04-05T23:33:51.933Z,100005.50
2023-04-05T23:36:18.734Z,100009.84
2023-04-05T23:38:45.568Z,100011.78
2023-04-05T23:41:12.443Z,100002.25
2023-04-05T23:43:45.449Z,100005.03
2023-04-05T23:46:12.520Z,100012.78
2023-04-05T23:48:39.541Z,100013.81
2023-04-05T23:51:06.637Z,100017.03
2023-04-05T23:53:33.720Z,100012.59
2023-04-05T23:56:00.738Z,100007.19
2023-04-05T23:58:28.324Z,100004.44
